WEATHER/FLIGHT PLANNING

Hattiesburg Radar

 

 

 

 

Weather Links

Flight Planning Links

 

METAR

2019/10/14 17:53 KHBG 141753Z AUTO 02003KT 10SM -RA FEW009 OVC019 18/16 A3010 RMK AO2 SLP192 P0001 60001 T01830161 10183 20156 56007

TAF

2019/10/14 18:36 TAF KHBG 141733Z 1418/1518 07003KT 6SM -RA SCT035 OVC050 FM142000 00000KT 6SM -RA BR OVC015 FM150400 11003KT 4SM -RA BR OVC007 FM151000 11003KT 2SM -RA BR OVC003 FM151400 18004KT 2SM -RA BR OVC007 FM151600 21006KT 4SM -RA BR OVC015